»·PEaware :: AAL486 KSNA-KPHX

AAL486 :: KSNA-KPHX

FLIGHT INFORMATION

Flight Status: Arrived
Operator:
American Airlines
More flights by this operator :: More flights under this callsign
Pilot: Henderson P. (1210)
Aircraft: AIRBUS A319
(A319)
More flights by this aircraft type
Origin: KSNA John Wayne-Orange Co
United States
Destination: KPHX Phoenix Sky Harbor Intl
United States
More flights between these airports :: More routes between these airports
Route: +PIGGN2 CNERY BLH HYDRR1
File this flight plan on PilotEdge
Remarks:
Altitude:
(Current/Filed)
33,000ft
Speed:
(Current/Filed)
428kts
Departed: 07-Nov-18 10:41 AM
Arrived: 07-Nov-18 11:32 AM
Distance/Time
Traveled:
294nm/0:51
Distance/Time
To Go:
Arrived

Flight Plot

Page will automatically refresh every two minutes.

Flight plan parsing failed; only flown route is shown


Map Options




Map Legend


Flown Route
Filed Route
Departure Airport
Arrival Airport
Navaid (VOR, NDB)
Fix

Horizontal Profiles

Position Reports

Time Latitude Longitude Heading Altitude Ground
Speed
07-Nov-18 10:28 33.680696 -117.861513 138 70ft 0kts
07-Nov-18 10:29 33.680696 -117.861513 138 70ft 0kts
07-Nov-18 10:30 33.680696 -117.861513 138 70ft 0kts
07-Nov-18 10:31 33.680696 -117.861513 138 70ft 0kts
07-Nov-18 10:32 33.680696 -117.861513 138 70ft 0kts
07-Nov-18 10:33 33.680696 -117.861513 138 70ft 0kts
07-Nov-18 10:34 33.680801 -117.861624 140 70ft 2kts
07-Nov-18 10:35 33.681354 -117.861900 209 70ft 2kts
07-Nov-18 10:36 33.681429 -117.861850 209 70ft 0kts
07-Nov-18 10:37 33.681428 -117.861850 209 70ft 0kts
07-Nov-18 10:38 33.681427 -117.861851 209 70ft 0kts
07-Nov-18 10:39 33.681404 -117.861866 209 70ft 1kts
07-Nov-18 10:40 33.680888 -117.863683 298 70ft 9kts
07-Nov-18 10:41 33.681161 -117.864296 298 70ft 0kts
07-Nov-18 10:42 33.681161 -117.864297 298 70ft 0kts
07-Nov-18 10:43 33.681423 -117.864866 299 70ft 6kts
07-Nov-18 10:44 33.664015 -117.876110 207 608ft 137kts
07-Nov-18 10:45 33.634815 -117.890438 186 2222ft 140kts
07-Nov-18 10:46 33.593058 -117.896109 187 3639ft 182kts
07-Nov-18 10:47 33.526576 -117.871024 151 5861ft 260kts
07-Nov-18 10:48 33.488227 -117.811433 111 8172ft 291kts
07-Nov-18 10:49 33.482487 -117.697292 67 11258ft 320kts
07-Nov-18 10:50 33.520806 -117.614815 55 12631ft 362kts
07-Nov-18 10:51 33.570276 -117.506262 67 15183ft 384kts
07-Nov-18 10:52 33.550916 -117.377880 111 17488ft 414kts
07-Nov-18 10:53 33.509231 -117.246229 104 19631ft 430kts
07-Nov-18 10:54 33.502160 -117.102016 88 21569ft 441kts
07-Nov-18 10:55 33.499027 -116.952405 89 23070ft 457kts
07-Nov-18 10:56 33.496796 -116.798395 88 24503ft 467kts
07-Nov-18 10:57 33.495028 -116.641175 89 26045ft 480kts
07-Nov-18 10:58 33.492924 -116.478938 89 27466ft 492kts
07-Nov-18 10:59 33.490519 -116.313477 89 28763ft 503kts
07-Nov-18 11:00 33.487902 -116.145945 89 30464ft 501kts
07-Nov-18 11:01 33.500358 -115.981705 67 31956ft 493kts
07-Nov-18 11:02 33.546964 -115.827813 67 33014ft 487kts
07-Nov-18 11:03 33.590889 -115.674404 66 33023ft 486kts
07-Nov-18 11:04 33.629819 -115.519193 84 33008ft 492kts
07-Nov-18 11:05 33.610678 -115.356867 91 33031ft 493kts
07-Nov-18 11:06 33.608681 -115.192394 91 33077ft 494kts
07-Nov-18 11:07 33.603499 -115.027745 90 33053ft 494kts
07-Nov-18 11:08 33.599031 -114.862869 91 32993ft 493kts
07-Nov-18 11:09 33.584774 -114.699562 103 32993ft 495kts
07-Nov-18 11:10 33.552747 -114.539920 103 32996ft 477kts
07-Nov-18 11:11 33.523275 -114.387765 103 30666ft 478kts
07-Nov-18 11:12 33.491589 -114.227246 103 27371ft 489kts
07-Nov-18 11:13 33.461170 -114.074192 103 25397ft 462kts
07-Nov-18 11:14 33.432057 -113.929145 103 24008ft 431kts
07-Nov-18 11:15 33.404111 -113.790034 103 21470ft 435kts
07-Nov-18 11:16 33.376854 -113.655731 102 20402ft 404kts
07-Nov-18 11:17 33.350563 -113.526135 102 19388ft 393kts
07-Nov-18 11:18 33.327058 -113.402418 100 18270ft 370kts
07-Nov-18 11:19 33.306114 -113.280795 100 17116ft 378kts
07-Nov-18 11:20 33.287150 -113.159897 98 15897ft 360kts
07-Nov-18 11:21 33.274351 -113.043881 88 14691ft 352kts
07-Nov-18 11:22 33.278029 -112.927160 87 13168ft 344kts
07-Nov-18 11:23 33.282667 -112.816385 71 11891ft 323kts
07-Nov-18 11:24 33.317524 -112.723066 63 11050ft 292kts
07-Nov-18 11:25 33.350530 -112.635507 64 9750ft 280kts
07-Nov-18 11:26 33.382070 -112.552878 65 8845ft 261kts
07-Nov-18 11:27 33.410491 -112.476887 68 7756ft 246kts
07-Nov-18 11:28 33.429224 -112.400916 92 6628ft 238kts
07-Nov-18 11:29 33.428689 -112.322212 90 5513ft 235kts
07-Nov-18 11:30 33.434014 -112.252840 77 4835ft 210kts
07-Nov-18 11:31 33.440846 -112.186712 91 3766ft 198kts
07-Nov-18 11:32 33.440830 -112.127239 91 2804ft 153kts
07-Nov-18 11:33 33.440828 -112.079785 91 2061ft 133kts
07-Nov-18 11:34 33.440888 -112.035614 91 1332ft 131kts
07-Nov-18 11:35 33.440609 -112.005159 118 1149ft 18kts
07-Nov-18 11:36 33.438984 -112.001811 90 1149ft 15kts
07-Nov-18 11:37 33.438185 -111.997629 127 1149ft 4kts
07-Nov-18 11:38 33.438015 -111.997311 121 1149ft 0kts
07-Nov-18 11:39 33.438015 -111.997311 121 1149ft 0kts
07-Nov-18 11:40 33.438015 -111.997311 121 1149ft 0kts
07-Nov-18 11:41 33.438015 -111.997311 121 1149ft 0kts
07-Nov-18 11:42 33.438015 -111.997311 121 1149ft 0kts
07-Nov-18 11:43 33.438015 -111.997311 121 1149ft 0kts
07-Nov-18 11:44 33.438015 -111.997311 121 1149ft 0kts
07-Nov-18 11:45 33.438015 -111.997311 121 1149ft 0kts
07-Nov-18 11:46 33.438015 -111.997311 121 1149ft 0kts

Navigation Log

Ident Type
Flight plan parsing failed, navigation log unavailable